Flight Track Log - Related Links

Times and Time Zones

All times are in EDT time to prevent confusion due to time zone crossing. See the N531QS flight status page for this flight to view local times or setup timezone preferences in your user account.

Time Position Orientation Groundspeed Altitude Reporting Facility
EDT Latitude Longitude Course Direction KTS MPH feet Rate Location/Type
Fri 11:57:31 AM 38.9333 -77.5167 237° Southwest 219 252 2,000  Level Potomac TRACON
Fri 11:58:31 AM 38.9000 -77.5833 237° Southwest 234 269 4,400 2,100 Climbing Potomac TRACON
Fri 11:59:31 AM 38.8333 -77.6000 191° South 271 312 6,200 2,000 Climbing Potomac TRACON
Fri 12:00:31 PM 38.7500 -77.6000 180° South 276 318 8,400 2,241 Climbing Potomac TRACON
Fri 12:02:17 PM 38.6153 -77.5872 176° South 273 314 12,400 2,241 Climbing Washington Center
Fri 12:03:17 PM 38.5156 -77.5792 176° South 318 366 14,600 2,300 Climbing Washington Center
Fri 12:04:17 PM 38.4114 -77.5764 179° South 358 412 17,000 2,622 Climbing Washington Center
Fri 12:05:16 PM 38.3203 -77.6481 212° Southwest 368 423 19,800 2,521 Climbing Washington Center
Fri 12:06:16 PM 38.2353 -77.7436 221° Southwest 385 443 22,000 2,231 Climbing Washington Center
Fri 12:07:17 PM 38.1361 -77.8144 209° Southwest 403 464 24,300 2,132 Climbing Washington Center
Fri 12:08:17 PM 38.0283 -77.8853 207° Southwest 423 487 26,300 1,750 Climbing Washington Center
Fri 12:09:17 PM 37.9292 -77.9453 206° Southwest 431 496 27,800 1,475 Climbing Washington Center
Fri 12:10:15 PM 37.8253 -78.0264 212° Southwest 442 509 29,200 2,168 Climbing Washington Center
Fri 12:11:16 PM 37.7233 -78.1200 216° Southwest 452 520 32,100 1,854 Climbing Washington Center
Fri 12:12:18 PM 37.6228 -78.2322 221° Southwest 452 520 33,000 443 Climbing Washington Center
Fri 12:13:18 PM 37.5372 -78.3314 223° Southwest 458 527 33,000 101 Level Washington Center
Fri 12:14:17 PM 37.4408 -78.4403 222° Southwest 463 533 33,200 550 Climbing Washington Center
Fri 12:15:18 PM 37.3442 -78.5492 222° Southwest 468 539 34,100 1,686 Climbing Washington Center
Fri 12:16:18 PM 37.2497 -78.6525 221° Southwest 468 539 36,600 1,983 Climbing Washington Center
Fri 12:17:16 PM 37.1308 -78.7361 209° Southwest 457 526 38,000 712 Climbing Washington Center
Fri 12:18:16 PM 37.0225 -78.8072 208° Southwest 446 513 38,000  Level Washington Center
Fri 12:19:16 PM 36.9142 -78.8806 208° Southwest 446 513 38,000  Level Washington Center
Fri 12:20:17 PM 36.8100 -78.9542 210° Southwest 446 513 38,000  Level Washington Center
Fri 12:21:18 PM 36.7014 -79.0244 207° Southwest 446 513 38,000  Level Washington Center
Fri 12:22:16 PM 36.6078 -79.0928 210° Southwest 446 513 38,000 504 Level Washington Center
Fri 12:23:17 PM 36.4953 -79.1600 206° Southwest 446 513 39,000 984 Climbing Washington Center
Fri 12:24:18 PM 36.3908 -79.2303 208° Southwest 441 507 40,000 496 Climbing Washington Center
Fri 12:25:18 PM 36.2883 -79.3028 210° Southwest 429 494 40,000  Level Washington Center
Fri 12:26:16 PM 36.1861 -79.3700 208° Southwest 424 488 40,000  Level Washington Center
Fri 12:27:16 PM 36.0700 -79.4183 199° South 424 488 40,000  Level Washington Center
Fri 12:28:17 PM 35.9519 -79.3844 167° South 418 481 40,000  Level Washington Center
Fri 12:29:17 PM 35.8347 -79.3300 159° South 429 494 40,000  Level Washington Center
Fri 12:30:18 PM 35.7175 -79.2761 160° South 434 499 40,000  Level Washington Center
Fri 12:31:16 PM 35.5983 -79.2194 159° South 445 512 40,000  Level Washington Center
Fri 12:32:17 PM 35.4811 -79.1631 159° South 453 521 40,000  Level Washington Center
Fri 12:33:16 PM 35.3533 -79.1014 159° South 453 521 40,000 -807 Level Washington Center
Fri 12:34:16 PM 35.2442 -79.0558 161° South 459 528 38,400 -1,785 Descending Washington Center
Fri 12:35:17 PM 35.1289 -79.0028 159° South 459 528 36,400 -2,057 Descending Washington Center
Fri 12:37:46 PM 34.8275 -78.8639 159° South 465 535 31,200 -2,096 Descending Jacksonville Center
Fri 12:38:46 PM 34.7033 -78.8244 165° South 465 535 29,100 -1,600 Descending Jacksonville Center
Fri 12:39:46 PM 34.5742 -78.8281 181° South 459 528 28,000 -550 Descending Jacksonville Center
Fri 12:40:46 PM 34.4569 -78.8864 202° Southwest 453 521 28,000 -150 Level Jacksonville Center
Fri 12:41:46 PM 34.3492 -78.9667 212° Southwest 447 514 27,700 -900 Descending Jacksonville Center
Fri 12:42:46 PM 34.2344 -79.0372 207° Southwest 453 521 26,200 -1,550 Descending Jacksonville Center
Fri 12:43:46 PM 34.1192 -79.0900 201° Southwest 458 527 24,600 -1,100 Descending Jacksonville Center
Fri 12:44:46 PM 34.0061 -79.1425 201° Southwest 448 516 24,000 -900 Descending Jacksonville Center
Fri 12:45:46 PM 33.8928 -79.1925 200° South 442 509 22,800 -1,550 Descending Jacksonville Center
Fri 12:46:46 PM 33.7836 -79.2419 201° Southwest 442 509 20,900 -1,950 Descending Jacksonville Center
Fri 12:47:46 PM 33.6936 -79.3081 211° Southwest 435 501 18,900 -2,100 Descending Jacksonville Center
Fri 12:48:46 PM 33.6039 -79.3764 212° Southwest 401 461 16,700 -2,100 Descending Jacksonville Center
Fri 12:49:46 PM 33.5158 -79.4447 213° Southwest 390 449 14,700 -1,950 Descending Jacksonville Center
Fri 12:50:46 PM 33.4281 -79.5081 211° Southwest 379 436 12,800 -1,850 Descending Jacksonville Center
Fri 12:51:46 PM 33.3547 -79.5853 221° Southwest 379 436 11,000 -950 Descending Jacksonville Center
Fri 12:52:46 PM 33.2942 -79.6619 227° Southwest 345 397 10,900 -450 Descending Jacksonville Center
Fri 12:53:46 PM 33.2397 -79.7336 228° Southwest 319 367 10,100 -1,500 Descending Jacksonville Center
Fri 12:54:46 PM 33.1911 -79.7975 228° Southwest 290 334 7,900 -2,200 Descending Jacksonville Center
Fri 12:55:46 PM 33.1447 -79.8611 229° Southwest 271 312 5,700 -2,050 Descending Jacksonville Center
Fri 12:56:46 PM 33.1022 -79.9144 226° Southwest 249 287 3,800 -1,550 Descending Jacksonville Center
Fri 12:57:46 PM 33.0653 -79.9481 217° Southwest 208 239 2,600 -800 Descending Jacksonville Center
Fri 12:58:46 PM 33.0242 -79.9717 206° Southwest 179 206 2,200 -400 Descending Jacksonville Center
Fri 01:00:00 PM 32.8972 -80.0273 200° South  Level FlightAware Approximate
Fri 01:07:00 PM 32.8833 -80.0333 203° Southwest  Level FlightAware Approximate
Fri 01:08:00 PM 32.8986 -80.0405 203° Southwest  Level Estimated
Fri 01:09:00 PM 32.8986 -80.0405 203° Southwest  Level Estimated
Fri 01:10:00 PM 32.8986 -80.0405 203° Southwest  Level Estimated

Login

Don't have an account? Register now (free) for customized features, flight alerts, and more!